Time;durP1;ratioP1;P1;durP2;ratioP2;P2;SDS_P1;SDS_P2;PMS_P1;PMS_P2;Temp;Humidity;BMP_temperature;BMP_pressure;BME280_temperature;BME280_humidity;BME280_pressure;Samples;Min_cycle;Max_cycle;Signal;HPM_P1;HPM_P2
2023/05/25 08:57:04;;;;;;;9.25;3.92;;;;;;;14.11;80.29;102610.22;5069336;28;20383;-66
2023/05/25 08:59:49;;;;;;;15.27;5.05;;;;;;;14.09;82.72;102609.59;5069896;28;20036;-67
2023/05/25 09:02:34;;;;;;;9.88;5.20;;;;;;;14.15;81.34;102612.31;5067453;28;20111;-67
2023/05/25 09:05:00;;;;;;;11.57;4.38;;;;;;;14.10;78.55;102616.69;5069282;28;20372;-67
2023/05/25 09:07:28;;;;;;;14.07;5.15;;;;;;;14.10;76.94;102619.41;5069516;28;20025;-69
2023/05/25 09:09:54;;;;;;;14.68;5.07;;;;;;;14.08;78.40;102613.34;5069515;28;20029;-68
2023/05/25 09:12:21;;;;;;;15.82;5.80;;;;;;;14.10;80.05;102616.69;5069312;28;20025;-67
2023/05/25 09:14:47;;;;;;;15.30;4.90;;;;;;;14.12;77.03;102614.63;5069600;28;20029;-67
2023/05/25 09:17:13;;;;;;;17.08;4.95;;;;;;;14.11;79.64;102618.38;5069393;28;20027;-67
2023/05/25 09:19:39;;;;;;;12.27;4.60;;;;;;;14.13;80.22;102613.56;5069309;28;20025;-67
2023/05/25 09:22:04;;;;;;;15.00;4.80;;;;;;;14.14;78.82;102610.63;5069585;28;20108;-67
2023/05/25 09:24:29;;;;;;;12.85;4.78;;;;;;;14.21;78.05;102620.72;5069763;28;20033;-67
2023/05/25 09:26:55;;;;;;;15.55;5.22;;;;;;;14.17;79.88;102607.50;5069185;28;20025;-67
2023/05/25 09:29:20;;;;;;;11.95;4.65;;;;;;;14.22;79.22;102608.78;5069327;28;20027;-67
2023/05/25 09:31:46;;;;;;;14.18;5.22;;;;;;;14.22;77.47;102620.53;5068273;28;20043;-67
2023/05/25 09:34:12;;;;;;;11.30;4.78;;;;;;;14.23;79.60;102622.19;5069011;28;20084;-68
2023/05/25 09:36:40;;;;;;;13.35;4.90;;;;;;;14.24;80.09;102618.41;5068844;28;20025;-67
2023/05/25 09:39:08;;;;;;;15.88;4.85;;;;;;;14.25;79.67;102631.00;5068879;28;20108;-67
2023/05/25 09:41:33;;;;;;;16.88;5.10;;;;;;;14.26;77.19;102629.94;5069183;28;20334;-67
2023/05/25 09:44:00;;;;;;;11.25;4.63;;;;;;;14.24;77.49;102626.59;5068979;28;20032;-67
2023/05/25 09:46:26;;;;;;;14.68;4.70;;;;;;;14.26;76.54;102626.38;5069130;28;20024;-67
2023/05/25 09:48:53;;;;;;;15.05;4.93;;;;;;;14.28;74.49;102618.84;5067415;28;20032;-67
2023/05/25 09:51:20;;;;;;;11.50;3.80;;;;;;;14.31;73.81;102629.31;5068885;28;20082;-67
2023/05/25 09:53:46;;;;;;;15.00;4.72;;;;;;;14.29;73.52;102626.78;5068826;28;20477;-67
2023/05/25 09:56:12;;;;;;;12.73;4.60;;;;;;;14.25;73.87;102622.84;5068382;28;20051;-67
2023/05/25 09:58:37;;;;;;;11.85;4.18;;;;;;;14.25;73.81;102632.88;5069001;28;20364;-67
2023/05/25 10:01:03;;;;;;;12.88;4.97;;;;;;;14.35;74.64;102636.88;5066001;28;20463;-68
2023/05/25 10:03:29;;;;;;;11.77;4.22;;;;;;;14.33;73.33;102636.25;5068613;28;20024;-67
2023/05/25 10:05:55;;;;;;;12.93;4.45;;;;;;;14.40;74.65;102632.69;5068305;28;20037;-67
2023/05/25 10:08:23;;;;;;;12.20;4.47;;;;;;;14.47;71.67;102633.53;5055318;28;20021;-68
2023/05/25 10:10:49;;;;;;;16.15;4.70;;;;;;;14.49;73.23;102631.44;5055366;28;20025;-68
2023/05/25 10:13:19;;;;;;;13.38;4.80;;;;;;;14.54;74.81;102629.78;5055109;28;20032;-67
2023/05/25 10:15:47;;;;;;;15.15;5.50;;;;;;;14.53;74.79;102633.53;5053909;28;20028;-67
2023/05/25 10:18:14;;;;;;;14.95;4.97;;;;;;;14.62;76.98;102630.66;5055274;28;20021;-67
2023/05/25 10:20:41;;;;;;;12.00;4.68;;;;;;;14.65;72.41;102628.34;5055123;28;20475;-67
2023/05/25 10:23:13;;;;;;;12.55;5.10;;;;;;;14.73;73.70;102632.75;5054608;28;20036;-67
2023/05/25 10:25:43;;;;;;;11.23;4.47;;;;;;;14.82;72.60;102627.94;5055045;28;20108;-67
2023/05/25 10:28:33;;;;;;;12.15;4.22;;;;;;;14.83;70.16;102645.97;5055099;28;20071;-68
2023/05/25 10:30:58;;;;;;;12.60;4.65;;;;;;;14.83;69.18;102633.16;5055120;28;20056;-67
2023/05/25 10:33:24;;;;;;;10.60;4.38;;;;;;;14.95;70.56;102630.66;5055309;28;20083;-67
2023/05/25 10:35:50;;;;;;;11.50;4.40;;;;;;;15.06;72.62;102629.16;5054810;28;20025;-67
2023/05/25 10:38:17;;;;;;;12.25;4.55;;;;;;;15.06;68.09;102632.72;5054624;28;20437;-67
2023/05/25 10:40:46;;;;;;;10.68;4.45;;;;;;;15.14;67.71;102647.19;5054800;28;20020;-67
2023/05/25 10:43:13;;;;;;;13.07;5.18;;;;;;;15.08;67.41;102646.16;5054776;28;20055;-67
2023/05/25 10:45:40;;;;;;;14.77;4.80;;;;;;;15.12;67.84;102643.84;5054745;28;20033;-67
2023/05/25 10:48:06;;;;;;;14.80;4.40;;;;;;;15.12;67.86;102638.41;5054346;28;20032;-67
2023/05/25 10:50:34;;;;;;;11.80;3.80;;;;;;;15.20;66.41;102635.44;5054334;28;20025;-67
2023/05/25 10:53:07;;;;;;;12.35;4.13;;;;;;;15.24;66.35;102633.97;5054317;28;20025;-67
2023/05/25 10:55:48;;;;;;;9.10;3.80;;;;;;;15.36;67.00;102637.72;5054261;28;20050;-68
2023/05/25 10:58:16;;;;;;;14.40;4.35;;;;;;;15.53;66.34;102634.53;5054266;28;20116;-68
2023/05/25 11:00:42;;;;;;;10.88;4.38;;;;;;;15.65;65.33;102634.69;5051871;28;20044;-68
2023/05/25 11:03:08;;;;;;;13.13;3.97;;;;;;;15.68;66.21;102635.09;5054125;28;20025;-68
2023/05/25 11:05:37;;;;;;;13.05;4.80;;;;;;;15.68;63.78;102632.38;5054283;28;20032;-67
2023/05/25 11:08:07;;;;;;;10.88;3.90;;;;;;;15.63;62.64;102634.91;5054032;28;20380;-68
2023/05/25 11:10:48;;;;;;;11.98;4.05;;;;;;;15.60;63.21;102632.63;5054241;28;20107;-68
2023/05/25 11:13:31;;;;;;;10.48;3.83;;;;;;;15.71;61.31;102631.13;5052606;28;20456;-67
2023/05/25 11:16:12;;;;;;;9.73;3.63;;;;;;;15.94;62.06;102627.88;5053980;28;20066;-67
2023/05/25 11:18:40;;;;;;;11.05;4.25;;;;;;;16.19;61.45;102627.13;5051758;28;20445;-67
2023/05/25 11:21:25;;;;;;;9.55;3.67;;;;;;;16.33;61.94;102628.72;5053800;28;20028;-68
2023/05/25 11:24:10;;;;;;;16.48;4.28;;;;;;;16.24;59.18;102627.31;5053963;28;20017;-67
2023/05/25 11:26:35;;;;;;;12.13;4.38;;;;;;;16.16;58.31;102624.84;5054014;28;20048;-68
2023/05/25 11:29:13;;;;;;;15.70;5.00;;;;;;;16.06;59.87;102628.91;5053593;28;20445;-67
2023/05/25 11:31:38;;;;;;;12.43;4.47;;;;;;;15.97;60.69;102621.97;5053894;28;20028;-68
2023/05/25 11:34:04;;;;;;;10.88;4.10;;;;;;;15.95;60.69;102626.84;5053467;28;20104;-67
2023/05/25 11:36:32;;;;;;;14.68;4.07;;;;;;;15.98;60.93;102615.47;5053693;28;20033;-68
2023/05/25 11:39:00;;;;;;;12.13;4.60;;;;;;;16.21;60.01;102614.91;5053675;28;20162;-68
2023/05/25 11:41:26;;;;;;;12.02;4.93;;;;;;;16.56;59.61;102608.16;5053566;28;20029;-68
2023/05/25 11:43:52;;;;;;;13.80;4.20;;;;;;;16.74;58.14;102608.25;5053571;28;20360;-67
2023/05/25 11:46:19;;;;;;;10.65;4.15;;;;;;;16.97;56.16;102599.44;5053037;28;20028;-68
2023/05/25 11:48:48;;;;;;;11.35;4.38;;;;;;;17.22;54.92;102601.28;5052260;28;20020;-68
2023/05/25 11:51:13;;;;;;;13.65;4.28;;;;;;;17.21;54.31;102599.63;5052955;28;20028;-68
2023/05/25 11:53:43;;;;;;;17.08;4.93;;;;;;;17.13;55.41;102602.63;5053409;28;20025;-68
2023/05/25 11:56:10;;;;;;;9.95;4.32;;;;;;;17.02;56.13;102600.66;5052952;28;20049;-67
2023/05/25 11:58:35;;;;;;;12.70;4.30;;;;;;;16.86;56.22;102607.50;5053327;28;20029;-68
2023/05/25 12:01:15;;;;;;;12.30;4.25;;;;;;;16.60;58.10;102599.28;5049160;28;20420;-67
2023/05/25 12:03:41;;;;;;;10.20;4.15;;;;;;;16.51;58.79;102594.34;5053212;28;20031;-67
2023/05/25 12:06:06;;;;;;;11.63;4.05;;;;;;;16.37;58.25;102608.09;5052963;28;20025;-67
2023/05/25 12:08:32;;;;;;;10.05;4.45;;;;;;;16.30;58.58;102594.50;5053098;28;20025;-68
2023/05/25 12:10:58;;;;;;;15.18;4.60;;;;;;;16.24;59.27;102594.53;5053139;28;20410;-68
2023/05/25 12:13:25;;;;;;;11.73;4.68;;;;;;;16.23;58.62;102593.69;5052965;28;20096;-67
2023/05/25 12:15:51;;;;;;;11.90;4.45;;;;;;;16.27;59.42;102591.34;5052906;28;20079;-67
2023/05/25 12:18:16;;;;;;;12.40;4.82;;;;;;;16.39;60.81;102588.75;5051436;28;20363;-68
2023/05/25 12:20:42;;;;;;;11.38;4.65;;;;;;;16.34;58.57;102583.97;5052852;28;20092;-67
2023/05/25 12:23:07;;;;;;;15.02;5.35;;;;;;;16.40;58.47;102585.81;5052404;28;20464;-67
2023/05/25 12:25:33;;;;;;;11.60;4.63;;;;;;;16.44;58.40;102584.31;5052847;28;20029;-67
2023/05/25 12:28:11;;;;;;;11.75;4.28;;;;;;;16.47;58.76;102581.13;5052843;28;20159;-67
2023/05/25 12:30:37;;;;;;;10.82;4.50;;;;;;;16.55;59.34;102576.44;5052535;28;20097;-68
2023/05/25 12:33:02;;;;;;;17.63;5.38;;;;;;;16.69;58.53;102580.72;5052822;28;20100;-67
2023/05/25 12:35:29;;;;;;;13.13;4.80;;;;;;;17.13;57.32;102581.59;5052641;28;20024;-68
2023/05/25 12:38:10;;;;;;;11.90;4.90;;;;;;;17.49;56.60;102568.97;5052676;28;20017;-67
2023/05/25 12:40:36;;;;;;;14.48;5.00;;;;;;;17.42;54.20;102579.19;5052667;28;20021;-68
2023/05/25 12:43:01;;;;;;;11.25;4.32;;;;;;;17.36;54.93;102580.06;5052546;28;20028;-67
2023/05/25 12:45:26;;;;;;;12.43;4.57;;;;;;;17.26;55.22;102574.31;5051049;28;20021;-68
2023/05/25 12:47:52;;;;;;;15.35;5.10;;;;;;;17.18;55.98;102583.63;5052544;28;20021;-68
2023/05/25 12:50:18;;;;;;;11.23;4.80;;;;;;;17.13;55.87;102578.03;5052328;28;20025;-68
2023/05/25 12:52:45;;;;;;;12.02;4.65;;;;;;;17.32;56.11;102571.50;5052475;28;20356;-67
2023/05/25 12:55:26;;;;;;;11.40;4.63;;;;;;;17.39;55.69;102579.59;5051894;28;20041;-68
2023/05/25 12:57:57;;;;;;;15.75;5.10;;;;;;;17.28;56.17;102573.00;5052498;28;20029;-67
2023/05/25 13:00:52;;;;;;;;;;;;;;;17.42;56.91;102576.44;5052161;28;20033;-67
2023/05/25 13:03:17;;;;;;;12.88;4.63;;;;;;;17.03;56.19;102564.88;5043129;28;20028;-68
2023/05/25 13:05:43;;;;;;;11.65;4.72;;;;;;;16.91;56.98;102566.66;5052519;28;20100;-67
2023/05/25 13:08:08;;;;;;;15.00;5.18;;;;;;;16.88;58.06;102567.13;5052151;28;20479;-67
2023/05/25 13:10:36;;;;;;;13.02;5.07;;;;;;;16.89;57.68;102563.34;5052328;28;20032;-67
2023/05/25 13:13:03;;;;;;;14.95;5.15;;;;;;;16.86;57.44;102571.94;5052352;28;20448;-67
2023/05/25 13:15:29;;;;;;;13.00;4.90;;;;;;;16.81;57.62;102564.44;5052109;28;20021;-67
2023/05/25 13:17:56;;;;;;;11.60;4.82;;;;;;;16.77;56.88;102552.25;5051969;28;20032;-68
2023/05/25 13:20:24;;;;;;;11.88;4.90;;;;;;;16.92;56.83;102560.16;5051981;28;20441;-67
2023/05/25 13:22:51;;;;;;;10.30;4.28;;;;;;;16.99;57.39;102549.97;5052236;28;20104;-67
2023/05/25 13:25:16;;;;;;;14.70;4.53;;;;;;;17.00;56.73;102551.66;5051982;28;20460;-67
2023/05/25 13:27:44;;;;;;;10.30;4.63;;;;;;;16.99;55.83;102552.72;5052170;28;20039;-67
2023/05/25 13:30:10;;;;;;;13.10;4.68;;;;;;;16.94;55.66;102547.94;5051926;28;20024;-67
2023/05/25 13:32:36;;;;;;;10.73;4.18;;;;;;;16.96;56.48;102548.53;5052216;28;20115;-67
2023/05/25 13:35:03;;;;;;;14.80;4.57;;;;;;;16.97;56.26;102541.19;5052246;28;20100;-68
2023/05/25 13:37:29;;;;;;;10.15;4.07;;;;;;;16.93;56.26;102546.25;5051896;28;20037;-68
2023/05/25 13:39:54;;;;;;;9.32;4.63;;;;;;;16.92;55.92;102560.16;5052062;28;20518;-68
2023/05/25 13:42:20;;;;;;;10.27;4.00;;;;;;;16.92;56.37;102555.50;5053268;28;20059;-68
2023/05/25 13:44:46;;;;;;;9.27;4.22;;;;;;;16.99;55.87;102541.78;5055878;28;20144;-68
2023/05/25 13:47:11;;;;;;;11.63;4.30;;;;;;;17.10;56.07;102545.66;5055549;28;20025;-68
2023/05/25 13:49:37;;;;;;;9.32;4.45;;;;;;;17.22;55.69;102543.00;5055873;28;20024;-68
2023/05/25 13:52:02;;;;;;;11.02;4.88;;;;;;;17.13;53.39;102547.94;5055830;28;20422;-68
2023/05/25 13:54:27;;;;;;;10.70;4.40;;;;;;;17.21;54.15;102539.44;5055481;28;20056;-68
2023/05/25 13:56:53;;;;;;;11.07;4.47;;;;;;;17.24;54.11;102544.44;5053990;28;20545;-67
2023/05/25 13:59:18;;;;;;;8.75;4.03;;;;;;;17.31;54.47;102545.19;5055307;28;20021;-67
2023/05/25 14:01:43;;;;;;;10.77;4.10;;;;;;;17.35;53.51;102548.31;5052979;28;20017;-68
2023/05/25 14:04:10;;;;;;;11.50;4.75;;;;;;;17.39;53.21;102546.78;5055321;28;20025;-68
2023/05/25 14:06:35;;;;;;;11.70;4.55;;;;;;;17.41;54.10;102543.81;5054093;28;20112;-68
2023/05/25 14:09:01;;;;;;;11.07;4.45;;;;;;;17.37;54.42;102540.69;5055415;28;20508;-68
2023/05/25 14:11:26;;;;;;;11.48;4.10;;;;;;;17.42;54.30;102535.41;5055220;28;20021;-68
2023/05/25 14:13:51;;;;;;;9.50;4.22;;;;;;;17.64;53.66;102537.63;5055293;28;20021;-68
2023/05/25 14:16:16;;;;;;;8.93;3.85;;;;;;;17.67;51.40;102531.69;5054968;28;20373;-68
2023/05/25 14:18:42;;;;;;;8.95;4.03;;;;;;;17.88;51.53;102539.38;5055278;28;20115;-68
2023/05/25 14:21:09;;;;;;;11.18;4.20;;;;;;;17.79;50.38;102531.75;5055186;28;20464;-68
2023/05/25 14:23:34;;;;;;;7.38;3.50;;;;;;;17.95;52.27;102528.38;5055146;28;20020;-68
2023/05/25 14:26:00;;;;;;;10.20;4.25;;;;;;;18.32;51.30;102532.84;5053770;28;20540;-68
2023/05/25 14:28:25;;;;;;;12.68;4.28;;;;;;;18.19;50.06;102532.00;5054818;28;20028;-68
2023/05/25 14:30:50;;;;;;;9.00;4.40;;;;;;;18.20;50.41;102530.91;5054962;28;20017;-68
2023/05/25 14:33:16;;;;;;;11.38;4.13;;;;;;;18.14;50.33;102536.50;5055015;28;20021;-68
2023/05/25 14:35:41;;;;;;;10.13;4.13;;;;;;;18.10;50.79;102536.16;5054831;28;20029;-68
2023/05/25 14:38:07;;;;;;;9.55;4.07;;;;;;;18.06;51.12;102535.78;5054855;28;20074;-68
2023/05/25 14:40:32;;;;;;;8.13;4.32;;;;;;;18.03;51.68;102527.22;5054333;28;20021;-68
2023/05/25 14:42:58;;;;;;;13.13;4.70;;;;;;;17.95;51.56;102533.00;5054816;28;20570;-68
2023/05/25 14:45:23;;;;;;;11.50;4.60;;;;;;;17.88;51.61;102533.91;5054544;28;20456;-68
2023/05/25 14:47:48;;;;;;;10.00;4.20;;;;;;;17.84;52.03;102535.44;5054672;28;20023;-68
2023/05/25 14:50:14;;;;;;;10.57;4.50;;;;;;;17.77;51.82;102531.97;5054334;28;20108;-68
2023/05/25 14:52:40;;;;;;;10.23;4.82;;;;;;;17.70;52.67;102529.31;5054532;28;20061;-68
2023/05/25 14:55:07;;;;;;;9.77;4.57;;;;;;;17.60;51.84;102530.94;5052943;28;20496;-68
2023/05/25 14:57:33;;;;;;;10.18;4.32;;;;;;;17.51;50.76;102534.00;5054384;28;20025;-68
2023/05/25 14:59:58;;;;;;;13.43;5.57;;;;;;;17.77;51.13;102528.38;5054791;28;20028;-68
2023/05/25 15:02:24;;;;;;;8.65;4.22;;;;;;;18.10;49.95;102527.94;5051665;28;20360;-68
2023/05/25 15:04:49;;;;;;;10.77;4.40;;;;;;;18.44;48.48;102514.50;5054355;28;20051;-68
2023/05/25 15:07:14;;;;;;;10.10;4.53;;;;;;;18.62;48.67;102515.47;5054106;28;20032;-68
2023/05/25 15:09:41;;;;;;;11.55;4.63;;;;;;;18.84;48.76;102513.81;5054253;28;20021;-68
2023/05/25 15:12:06;;;;;;;12.27;4.55;;;;;;;18.91;48.89;102528.22;5052980;28;20025;-68
2023/05/25 15:14:32;;;;;;;18.67;4.63;;;;;;;18.81;48.71;102519.78;5053632;28;20491;-68
2023/05/25 15:16:58;;;;;;;14.25;7.43;;;;;;;18.66;47.83;102524.88;5054363;28;20016;-68
2023/05/25 15:19:23;;;;;;;12.93;5.60;;;;;;;18.39;48.12;102530.84;5053893;28;20117;-68
2023/05/25 15:21:48;;;;;;;11.27;5.53;;;;;;;18.28;48.58;102528.91;5054043;28;20021;-68
2023/05/25 15:24:15;;;;;;;9.65;4.47;;;;;;;18.17;48.47;102519.59;5053733;28;20021;-68
2023/05/25 15:26:42;;;;;;;10.55;4.88;;;;;;;18.20;48.75;102514.47;5052645;28;20037;-68
2023/05/25 15:29:07;;;;;;;12.88;6.18;;;;;;;18.78;48.73;102518.34;5053914;28;20032;-68
2023/05/25 15:31:32;;;;;;;13.98;6.53;;;;;;;19.51;47.59;102504.22;5053672;28;20032;-68
2023/05/25 15:33:59;;;;;;;11.55;4.47;;;;;;;20.25;45.24;102508.03;5053812;28;20440;-68
2023/05/25 15:36:25;;;;;;;8.98;3.97;;;;;;;20.56;44.36;102508.50;5053465;28;20112;-68
2023/05/25 15:38:50;;;;;;;14.18;5.00;;;;;;;20.31;43.50;102505.09;5053768;28;20112;-68
2023/05/25 15:41:15;;;;;;;13.55;4.82;;;;;;;20.29;43.78;102507.28;5053437;28;20104;-68
2023/05/25 15:43:41;;;;;;;12.32;5.63;;;;;;;20.11;43.95;102499.25;5053592;28;20020;-68
2023/05/25 15:46:06;;;;;;;10.95;5.05;;;;;;;19.96;45.28;102497.94;5053338;28;20033;-68
2023/05/25 15:48:31;;;;;;;15.43;5.93;;;;;;;19.94;45.46;102513.00;5053552;28;20040;-68
2023/05/25 15:50:57;;;;;;;10.35;4.05;;;;;;;20.04;44.77;102507.69;5053775;28;20020;-68
2023/05/25 15:53:22;;;;;;;13.98;5.18;;;;;;;19.82;46.75;102502.06;5053250;28;20526;-68
2023/05/25 15:55:48;;;;;;;14.23;4.47;;;;;;;19.50;47.61;102504.47;5053185;28;20045;-68
2023/05/25 15:58:14;;;;;;;16.08;4.70;;;;;;;19.25;47.96;102511.13;5053412;28;20024;-68
2023/05/25 16:00:40;;;;;;;11.93;4.18;;;;;;;19.01;48.29;102511.19;5050879;28;20036;-68
2023/05/25 16:03:05;;;;;;;14.32;4.57;;;;;;;18.86;48.96;102508.94;5053373;28;20020;-68
2023/05/25 16:05:30;;;;;;;10.88;4.47;;;;;;;18.73;49.07;102512.72;5052211;28;20376;-68
2023/05/25 16:07:55;;;;;;;13.60;4.28;;;;;;;18.52;48.87;102516.06;5053190;28;20031;-68
